Time;durP1;ratioP1;P1;durP2;ratioP2;P2;SDS_P1;SDS_P2;PMS_P1;PMS_P2;Temp;Humidity;BMP_temperature;BMP_pressure;BME280_temperature;BME280_humidity;BME280_pressure;Samples;Min_cycle;Max_cycle;Signal;HPM_P1;HPM_P2
2020/12/05 00:02:06;;;;;;;25.65;14.80;;;4.40;99.90;;;;;;4970973;28;20035;-77
2020/12/05 00:04:32;;;;;;;21.88;15.13;;;4.60;99.90;;;;;;4987396;28;20108;-78
2020/12/05 00:06:57;;;;;;;19.90;14.25;;;4.60;99.90;;;;;;4986794;28;20617;-78
2020/12/05 00:09:23;;;;;;;22.45;14.82;;;4.60;99.90;;;;;;4987277;28;20026;-76
2020/12/05 00:11:48;;;;;;;25.50;16.08;;;4.60;99.90;;;;;;4971523;28;20046;-79
2020/12/05 00:14:14;;;;;;;26.50;17.98;;;4.50;99.90;;;;;;4972161;28;20506;-78
2020/12/05 00:16:52;;;;;;;29.65;19.63;;;3.80;99.90;;;;;;4972331;28;20039;-78
2020/12/05 00:19:19;;;;;;;32.25;20.38;;;3.20;99.90;;;;;;4985762;28;20117;-79
2020/12/05 00:21:45;;;;;;;27.63;18.13;;;3.40;99.90;;;;;;4972300;28;20053;-77
2020/12/05 00:24:10;;;;;;;31.05;19.08;;;3.60;99.90;;;;;;4972813;28;20387;-78
2020/12/05 00:26:36;;;;;;;31.30;20.20;;;3.80;99.90;;;;;;4986910;28;20030;-78
2020/12/05 00:29:02;;;;;;;25.67;17.35;;;3.60;99.90;;;;;;4972524;28;20047;-78
2020/12/05 00:31:27;;;;;;;26.98;16.15;;;3.90;99.90;;;;;;4972263;28;20122;-78
2020/12/05 00:33:53;;;;;;;27.40;16.40;;;3.90;99.90;;;;;;4972174;28;20066;-78
2020/12/05 00:36:19;;;;;;;31.92;18.45;;;4.00;99.90;;;;;;4971595;28;20023;-76
2020/12/05 00:38:45;;;;;;;28.38;17.25;;;4.00;99.90;;;;;;4972360;28;20841;-77
2020/12/05 00:41:16;;;;;;;23.65;16.85;;;3.90;99.90;;;;;;4970682;28;20057;-77
2020/12/05 00:43:41;;;;;;;29.17;17.65;;;3.90;99.90;;;;;;4972795;28;20427;-78
2020/12/05 00:46:07;;;;;;;25.00;16.27;;;4.00;99.90;;;;;;4972228;28;20062;-78
2020/12/05 00:48:32;;;;;;;28.42;18.15;;;4.20;99.90;;;;;;4971761;28;20030;-79
2020/12/05 00:50:58;;;;;;;28.88;16.58;;;4.10;99.90;;;;;;4972910;28;20031;-79
2020/12/05 00:53:24;;;;;;;25.10;17.25;;;4.00;99.90;;;;;;4972611;28;20393;-79
2020/12/05 00:55:50;;;;;;;32.83;17.42;;;4.10;99.90;;;;;;4972387;28;20022;-79
2020/12/05 00:58:16;;;;;;;26.95;17.42;;;4.10;99.90;;;;;;4973554;28;20027;-77
2020/12/05 01:00:42;;;;;;;25.95;17.30;;;4.00;99.90;;;;;;4973105;28;20023;-77
2020/12/05 01:03:08;;;;;;;26.20;16.88;;;4.20;99.90;;;;;;4974987;28;20102;-76
2020/12/05 01:05:35;;;;;;;26.02;16.10;;;4.20;99.90;;;;;;4976804;28;20512;-78
2020/12/05 01:08:05;;;;;;;27.75;16.92;;;4.20;99.90;;;;;;4976173;28;20026;-78
2020/12/05 01:10:32;;;;;;;23.48;16.15;;;4.20;99.90;;;;;;4976217;28;20031;-78
2020/12/05 01:13:01;;;;;;;28.42;16.42;;;4.20;99.90;;;;;;4975206;28;20374;-76
2020/12/05 01:15:27;;;;;;;29.33;17.35;;;4.10;99.90;;;;;;4974788;28;20035;-76
2020/12/05 01:17:53;;;;;;;28.48;17.23;;;4.00;99.90;;;;;;4976404;28;20088;-77
2020/12/05 01:20:19;;;;;;;25.35;16.98;;;3.80;99.90;;;;;;4976394;28;20023;-78
2020/12/05 01:22:44;;;;;;;27.00;17.35;;;3.70;99.90;;;;;;4990821;28;20030;-76
2020/12/05 01:25:10;;;;;;;26.05;17.70;;;3.50;99.90;;;;;;4975956;28;20030;-79
2020/12/05 01:27:36;;;;;;;24.00;15.93;;;3.40;99.90;;;;;;4976087;28;20031;-79
2020/12/05 01:30:02;;;;;;;27.50;18.58;;;3.40;99.90;;;;;;4975999;28;20090;-75
2020/12/05 01:32:27;;;;;;;33.83;20.40;;;2.60;99.90;;;;;;4976257;28;20046;-76
2020/12/05 01:34:53;;;;;;;29.30;18.73;;;2.20;99.90;;;;;;4990550;28;20034;-74
2020/12/05 01:37:18;;;;;;;27.08;17.73;;;2.50;99.90;;;;;;4976147;28;20478;-77
2020/12/05 01:39:44;;;;;;;26.10;16.73;;;2.70;99.90;;;;;;4973670;28;20145;-78
2020/12/05 01:42:10;;;;;;;27.52;18.02;;;2.90;99.90;;;;;;4989931;28;20027;-77
2020/12/05 01:44:35;;;;;;;24.95;15.93;;;2.90;99.90;;;;;;4974866;28;20090;-75
2020/12/05 01:47:01;;;;;;;23.23;14.75;;;2.90;99.90;;;;;;4973585;28;20518;-76
2020/12/05 01:49:27;;;;;;;22.83;14.98;;;2.90;99.90;;;;;;4971819;28;20478;-76
2020/12/05 01:51:55;;;;;;;24.08;15.63;;;2.90;99.90;;;;;;4971904;28;20030;-76
2020/12/05 01:54:21;;;;;;;;;;;3.10;99.90;;;;;;4972210;28;20027;-76
2020/12/05 01:56:59;;;;;;;21.85;15.02;;;3.20;99.90;;;;;;4971992;28;19968;-75
2020/12/05 01:59:25;;;;;;;23.38;15.45;;;3.30;99.90;;;;;;4970515;28;20034;-75
2020/12/05 02:02:03;;;;;;;23.80;16.13;;;3.30;99.90;;;;;;4970530;28;20038;-76
2020/12/05 02:04:55;;;;;;;;;;;3.30;99.90;;;;;;4970480;28;20038;-76
2020/12/05 02:07:37;;;;;;;19.35;12.68;;;3.40;99.90;;;;;;4970256;28;19910;-76
2020/12/05 02:10:09;;;;;;;17.95;11.93;;;3.20;99.90;;;;;;4970492;28;20030;-76
2020/12/05 02:12:44;;;;;;;18.27;11.90;;;3.10;99.90;;;;;;4971325;28;20031;-76
2020/12/05 02:15:20;;;;;;;15.38;10.88;;;3.00;99.90;;;;;;4971191;28;20027;-76
2020/12/05 02:18:04;;;;;;;16.80;11.38;;;2.90;99.90;;;;;;4971671;28;20027;-74
2020/12/05 02:20:33;;;;;;;17.00;11.43;;;2.90;99.90;;;;;;4986376;28;20077;-76
2020/12/05 02:23:12;;;;;;;14.68;10.60;;;2.70;99.90;;;;;;4971421;28;20085;-75
2020/12/05 02:25:42;;;;;;;16.50;10.70;;;2.90;99.90;;;;;;4971247;28;20037;-75
2020/12/05 02:28:09;;;;;;;14.38;9.93;;;3.00;99.90;;;;;;4971580;28;20496;-75
2020/12/05 02:30:35;;;;;;;15.35;10.88;;;3.00;99.90;;;;;;4971398;28;20150;-76
2020/12/05 02:33:02;;;;;;;17.75;11.52;;;2.90;99.90;;;;;;4970342;28;20121;-75
2020/12/05 02:35:27;;;;;;;17.80;11.98;;;2.90;99.90;;;;;;4969897;28;20019;-75
2020/12/05 02:38:25;;;;;;;16.83;11.57;;;2.80;99.90;;;;;;4969964;28;20027;-76
2020/12/05 02:40:51;;;;;;;20.27;12.20;;;3.00;99.90;;;;;;4969303;28;20034;-75
2020/12/05 02:43:17;;;;;;;16.00;11.50;;;2.90;99.90;;;;;;4971108;28;20023;-76
2020/12/05 02:45:43;;;;;;;17.75;11.80;;;2.80;99.90;;;;;;4970773;28;20106;-75
2020/12/05 02:48:09;;;;;;;18.20;12.73;;;2.90;99.90;;;;;;4970753;28;20023;-75
2020/12/05 02:50:36;;;;;;;18.13;12.57;;;2.90;99.90;;;;;;4970829;28;20030;-75
2020/12/05 02:53:02;;;;;;;17.42;12.13;;;3.00;99.90;;;;;;4970854;28;20035;-75
2020/12/05 02:55:27;;;;;;;18.33;12.32;;;3.10;99.90;;;;;;4968445;28;20022;-76
2020/12/05 02:57:53;;;;;;;20.45;12.30;;;3.10;99.90;;;;;;4969004;28;20035;-76
2020/12/05 03:00:19;;;;;;;18.60;13.32;;;3.00;99.90;;;;;;4970677;28;20127;-76
2020/12/05 03:02:44;;;;;;;19.00;12.65;;;3.00;99.90;;;;;;4973020;28;20037;-75
2020/12/05 03:05:10;;;;;;;19.85;13.38;;;3.00;99.90;;;;;;4971846;28;20420;-74
2020/12/05 03:07:36;;;;;;;21.05;13.75;;;3.00;99.90;;;;;;4971672;28;20037;-75
2020/12/05 03:10:02;;;;;;;21.95;15.20;;;3.00;99.90;;;;;;4973242;28;20027;-75
2020/12/05 03:12:28;;;;;;;21.88;14.95;;;2.90;99.90;;;;;;4973023;28;20055;-75
2020/12/05 03:14:53;;;;;;;23.63;16.08;;;2.80;99.90;;;;;;4972743;28;20074;-75
2020/12/05 03:17:19;;;;;;;24.40;16.33;;;;;;;;;;4972761;28;20042;-75
2020/12/05 03:19:45;;;;;;;28.75;18.95;;;;;;;;;;4972961;28;20465;-74
2020/12/05 03:22:12;;;;;;;27.40;18.98;;;;;;;;;;4971520;28;20023;-76
2020/12/05 03:24:38;;;;;;;27.33;18.45;;;;;;;;;;4971827;28;20105;-75
2020/12/05 03:27:04;;;;;;;26.58;17.92;;;;;;;;;;4972788;28;20101;-75
2020/12/05 03:29:30;;;;;;;25.58;17.90;;;;;;;;;;4972709;28;20126;-74
2020/12/05 03:32:00;;;;;;;27.63;17.50;;;2.60;99.90;;;;;;4972867;28;20027;-75
2020/12/05 03:34:25;;;;;;;25.15;16.73;;;2.50;99.90;;;;;;4987620;28;20026;-75
2020/12/05 03:36:51;;;;;;;22.15;15.23;;;2.60;99.90;;;;;;4970286;28;20043;-75
2020/12/05 03:39:17;;;;;;;19.92;13.57;;;2.70;99.90;;;;;;4971464;28;20103;-75
2020/12/05 03:41:43;;;;;;;17.88;12.35;;;2.90;99.90;;;;;;4971877;28;20399;-75
2020/12/05 03:44:09;;;;;;;16.70;12.15;;;3.10;99.90;;;;;;4971992;28;20077;-75
2020/12/05 03:46:35;;;;;;;17.48;12.98;;;3.10;99.90;;;;;;4972343;28;20023;-75
2020/12/05 03:49:00;;;;;;;17.98;11.30;;;3.20;99.90;;;;;;4971161;28;20027;-75
2020/12/05 03:51:27;;;;;;;20.20;13.35;;;3.20;99.90;;;;;;4987397;28;20034;-75
2020/12/05 03:53:53;;;;;;;18.38;12.25;;;3.00;99.90;;;;;;4972432;28;20026;-75
2020/12/05 03:56:19;;;;;;;17.50;11.88;;;3.20;99.90;;;;;;4971838;28;20048;-75
2020/12/05 03:58:44;;;;;;;16.58;11.05;;;3.20;99.90;;;;;;4972258;28;20351;-74
2020/12/05 04:01:10;;;;;;;15.05;11.25;;;3.20;99.90;;;;;;4970858;28;20118;-75
2020/12/05 04:03:36;;;;;;;19.02;11.65;;;3.20;99.90;;;;;;4969627;28;20034;-76
2020/12/05 04:06:02;;;;;;;15.70;11.73;;;3.10;99.90;;;;;;4969597;28;20023;-75
2020/12/05 04:08:28;;;;;;;17.95;12.05;;;3.10;99.90;;;;;;4970437;28;20019;-74
2020/12/05 04:10:54;;;;;;;17.55;12.13;;;3.00;99.90;;;;;;4969946;28;20018;-75
2020/12/05 04:13:20;;;;;;;16.25;11.65;;;2.90;99.90;;;;;;4969077;28;20022;-74
2020/12/05 04:15:45;;;;;;;17.17;11.02;;;2.90;99.90;;;;;;4969078;28;20085;-74
2020/12/05 04:18:11;;;;;;;16.52;11.52;;;2.90;99.90;;;;;;4969138;28;20030;-74
2020/12/05 04:20:37;;;;;;;14.95;10.13;;;2.90;99.90;;;;;;4969395;28;20098;-75
2020/12/05 04:23:02;;;;;;;13.38;9.15;;;2.90;99.90;;;;;;4969338;28;20023;-74
2020/12/05 04:25:28;;;;;;;12.65;9.30;;;2.90;99.90;;;;;;4984219;28;20255;-75
2020/12/05 04:27:53;;;;;;;13.25;8.93;;;2.90;99.90;;;;;;4969089;28;20033;-75
2020/12/05 04:30:21;;;;;;;12.98;8.30;;;2.90;99.90;;;;;;4969080;28;20474;-76
2020/12/05 04:32:46;;;;;;;14.88;9.98;;;2.90;99.90;;;;;;4969200;28;20023;-75
2020/12/05 04:35:12;;;;;;;13.55;9.05;;;2.80;99.90;;;;;;4968872;28;20027;-77
2020/12/05 04:37:38;;;;;;;12.18;7.60;;;2.90;99.90;;;;;;4967878;28;20122;-75
2020/12/05 04:40:05;;;;;;;11.10;7.72;;;2.70;99.90;;;;;;4967844;28;20222;-75
2020/12/05 04:42:31;;;;;;;9.48;7.32;;;2.70;99.90;;;;;;4967613;28;20386;-76
2020/12/05 04:44:56;;;;;;;10.57;7.50;;;2.80;99.90;;;;;;4968696;28;20110;-75
2020/12/05 04:47:24;;;;;;;10.80;7.60;;;2.80;99.90;;;;;;4968980;28;20114;-75
2020/12/05 04:49:56;;;;;;;10.27;7.18;;;2.80;99.90;;;;;;4969030;28;20022;-75
2020/12/05 04:52:31;;;;;;;9.35;6.50;;;2.90;99.90;;;;;;4968900;28;20467;-75
2020/12/05 04:54:57;;;;;;;10.25;7.45;;;2.90;99.90;;;;;;4968757;28;20110;-76
2020/12/05 04:57:30;;;;;;;9.25;6.78;;;2.80;99.90;;;;;;4968830;28;20109;-75
2020/12/05 04:59:56;;;;;;;8.27;5.70;;;2.70;99.90;;;;;;4969249;28;20505;-74
2020/12/05 05:02:29;;;;;;;7.97;5.20;;;2.90;99.90;;;;;;4968939;28;20062;-76
2020/12/05 05:04:55;;;;;;;8.38;6.15;;;2.90;99.90;;;;;;4969009;28;20023;-75
2020/12/05 05:07:21;;;;;;;8.90;6.05;;;3.00;99.90;;;;;;4967264;28;20038;-75
2020/12/05 05:09:55;;;;;;;8.20;5.63;;;3.10;99.90;;;;;;4968720;28;20153;-74
2020/12/05 05:12:35;;;;;;;8.27;5.88;;;3.20;99.90;;;;;;4983447;28;20549;-74
2020/12/05 05:15:01;;;;;;;8.77;5.60;;;3.00;99.90;;;;;;4983294;28;20027;-75
2020/12/05 05:17:27;;;;;;;7.95;5.90;;;3.00;99.90;;;;;;4968433;28;20101;-74
2020/12/05 05:19:52;;;;;;;9.30;6.40;;;3.00;99.90;;;;;;4967397;28;20122;-75
2020/12/05 05:22:22;;;;;;;8.05;5.97;;;2.90;99.90;;;;;;4968587;28;20416;-75
2020/12/05 05:25:05;;;;;;;9.02;6.57;;;2.80;99.90;;;;;;4968388;28;20023;-74
2020/12/05 05:27:31;;;;;;;7.05;5.28;;;2.80;99.90;;;;;;4968587;28;20058;-75
2020/12/05 05:30:09;;;;;;;5.90;3.92;;;2.90;99.90;;;;;;4968900;28;20033;-75
2020/12/05 05:32:43;;;;;;;5.63;3.63;;;2.70;99.90;;;;;;4967443;28;20033;-76
2020/12/05 05:35:14;;;;;;;7.18;4.50;;;2.90;99.90;;;;;;4983653;28;20118;-75
2020/12/05 05:37:41;;;;;;;6.30;4.47;;;2.90;99.90;;;;;;4968694;28;20118;-75
2020/12/05 05:40:08;;;;;;;5.95;4.60;;;3.00;99.90;;;;;;4968477;28;20030;-76
2020/12/05 05:42:36;;;;;;;5.88;4.22;;;2.90;99.90;;;;;;4966897;28;20027;-76
2020/12/05 05:45:19;;;;;;;5.32;3.53;;;2.90;99.90;;;;;;4968220;28;20031;-76
2020/12/05 05:47:46;;;;;;;6.07;4.07;;;3.00;99.90;;;;;;4968653;28;20647;-76
2020/12/05 05:50:25;;;;;;;7.75;4.53;;;2.90;99.90;;;;;;4972040;28;20130;-75
2020/12/05 05:53:23;;;;;;;6.03;4.40;;;2.90;99.90;;;;;;4971927;28;20082;-75
2020/12/05 05:55:50;;;;;;;6.50;4.38;;;2.70;99.90;;;;;;4970409;28;20666;-75
2020/12/05 05:58:20;;;;;;;6.82;4.25;;;2.60;99.90;;;;;;4972081;28;20107;-75
2020/12/05 06:00:48;;;;;;;8.45;5.45;;;2.90;99.90;;;;;;4971841;28;20023;-74
2020/12/05 06:03:17;;;;;;;;;;;3.00;99.90;;;;;;4970871;28;20094;-75
2020/12/05 06:05:45;;;;;;;8.38;5.47;;;2.70;99.90;;;;;;4971513;28;19906;-75
2020/12/05 06:08:29;;;;;;;6.95;4.93;;;2.30;99.90;;;;;;4971860;28;20023;-76
2020/12/05 06:10:56;;;;;;;9.45;5.60;;;2.10;99.90;;;;;;4970257;28;20477;-76
2020/12/05 06:13:25;;;;;;;8.27;5.83;;;2.10;99.90;;;;;;4971680;28;20111;-75
2020/12/05 06:15:52;;;;;;;8.77;5.75;;;2.20;99.90;;;;;;4970122;28;20321;-76
2020/12/05 06:18:20;;;;;;;11.75;7.13;;;2.30;99.90;;;;;;4971725;28;20049;-74
2020/12/05 06:20:47;;;;;;;11.30;7.85;;;2.20;99.90;;;;;;4971923;28;20031;-75
2020/12/05 06:23:31;;;;;;;9.47;6.90;;;2.00;99.90;;;;;;4970183;28;20031;-76
2020/12/05 06:25:59;;;;;;;16.38;7.80;;;2.10;99.90;;;;;;4971034;28;20026;-75
2020/12/05 06:28:25;;;;;;;8.82;5.55;;;2.10;99.90;;;;;;4971726;28;20429;-75
2020/12/05 06:30:52;;;;;;;113.57;37.33;;;2.20;99.90;;;;;;4971335;28;20057;-75
2020/12/05 06:33:40;;;;;;;80.63;28.38;;;2.20;99.90;;;;;;4971345;28;20018;-75
2020/12/05 06:36:27;;;;;;;234.95;55.85;;;2.10;99.90;;;;;;4969383;28;20592;-75
2020/12/05 06:39:05;;;;;;;186.00;41.78;;;1.90;99.90;;;;;;4984834;28;20077;-75
2020/12/05 06:41:38;;;;;;;344.92;63.75;;;2.10;99.90;;;;;;4970284;28;20019;-76
2020/12/05 06:44:33;;;;;;;397.52;76.20;;;2.10;99.90;;;;;;4970770;28;20045;-74
2020/12/05 06:47:02;;;;;;;446.65;93.25;;;2.10;99.90;;;;;;4971096;28;20022;-73
2020/12/05 06:49:37;;;;;;;587.40;144.43;;;2.10;99.90;;;;;;4970800;28;20106;-74
2020/12/05 06:52:22;;;;;;;515.25;134.55;;;2.00;99.90;;;;;;4985634;28;20047;-75
2020/12/05 06:54:54;;;;;;;388.02;109.97;;;2.00;99.90;;;;;;4970671;28;20425;-75
2020/12/05 06:57:21;;;;;;;308.35;108.50;;;2.10;99.90;;;;;;4970824;28;20358;-76
2020/12/05 06:59:47;;;;;;;163.85;48.05;;;2.00;99.90;;;;;;4969562;28;20058;-75
2020/12/05 07:02:28;;;;;;;120.43;35.47;;;2.20;99.90;;;;;;4985800;28;20066;-75
2020/12/05 07:05:16;;;;;;;117.03;36.92;;;2.40;99.90;;;;;;4970349;28;20136;-76
2020/12/05 07:07:42;;;;;;;108.32;36.08;;;2.30;99.90;;;;;;4970484;28;20363;-75
2020/12/05 07:10:07;;;;;;;74.53;26.83;;;2.30;99.90;;;;;;4970738;28;20022;-75
2020/12/05 07:12:37;;;;;;;61.83;23.20;;;2.00;99.90;;;;;;4970575;28;20505;-74
2020/12/05 07:15:27;;;;;;;36.42;17.42;;;2.00;99.90;;;;;;4985146;28;20019;-74
2020/12/05 07:17:53;;;;;;;20.10;10.85;;;2.00;99.90;;;;;;4970337;28;20130;-76
2020/12/05 07:20:19;;;;;;;20.08;10.52;;;2.20;99.90;;;;;;4970240;28;20027;-74
2020/12/05 07:22:48;;;;;;;15.63;9.40;;;2.00;99.90;;;;;;4970603;28;20033;-75
2020/12/05 07:25:13;;;;;;;49.35;30.98;;;2.10;99.90;;;;;;4970190;28;20030;-74
2020/12/05 07:27:39;;;;;;;50.20;32.17;;;2.20;99.90;;;;;;4970170;28;20031;-75
2020/12/05 07:30:09;;;;;;;14.15;9.32;;;2.20;99.90;;;;;;4970283;28;20034;-74
2020/12/05 07:32:36;;;;;;;22.10;13.98;;;1.90;99.90;;;;;;4970210;28;20042;-76
2020/12/05 07:35:04;;;;;;;14.02;8.50;;;1.90;99.90;;;;;;4970130;28;20023;-76
2020/12/05 07:37:33;;;;;;;27.40;14.02;;;1.90;99.90;;;;;;4968783;28;20090;-74
2020/12/05 07:39:59;;;;;;;413.38;157.18;;;2.00;99.90;;;;;;4970048;28;20107;-74
2020/12/05 07:42:34;;;;;;;157.27;65.25;;;2.10;99.90;;;;;;4984704;28;20137;-74
2020/12/05 07:45:11;;;;;;;42.00;23.00;;;2.20;99.90;;;;;;4970025;28;20027;-75
2020/12/05 07:47:37;;;;;;;32.92;18.15;;;2.30;99.90;;;;;;4969939;28;20034;-75
2020/12/05 07:50:04;;;;;;;48.70;28.92;;;2.30;99.90;;;;;;4969876;28;20478;-76
2020/12/05 07:52:30;;;;;;;55.85;33.35;;;2.40;99.90;;;;;;4984528;28;20126;-75
2020/12/05 07:55:03;;;;;;;70.43;44.72;;;2.40;99.90;;;;;;4969508;28;20098;-75
2020/12/05 07:57:32;;;;;;;26.33;18.40;;;2.20;99.90;;;;;;4969618;28;20023;-75
2020/12/05 08:00:10;;;;;;;29.60;21.55;;;2.00;99.90;;;;;;4968144;28;20042;-75
2020/12/05 08:03:04;;;;;;;39.58;27.10;;;2.00;99.90;;;;;;4984825;28;20501;-76
2020/12/05 08:05:29;;;;;;;72.72;45.65;;;2.10;99.90;;;;;;4969317;28;20030;-75
2020/12/05 08:08:01;;;;;;;69.70;44.33;;;2.00;99.90;;;;;;4969566;28;20604;-75
2020/12/05 08:10:29;;;;;;;50.72;33.75;;;2.00;99.90;;;;;;4969562;28;20034;-76
2020/12/05 08:13:07;;;;;;;;;;;2.00;99.90;;;;;;4970003;28;20031;-75
2020/12/05 08:15:34;;;;;;;29.80;21.40;;;2.10;99.90;;;;;;4969145;28;19964;-74
2020/12/05 08:18:01;;;;;;;27.55;21.17;;;2.40;99.90;;;;;;4969575;28;20023;-75
2020/12/05 08:20:27;;;;;;;;;;;2.60;99.90;;;;;;4970085;28;20031;-75
2020/12/05 08:22:53;;;;;;;23.75;15.70;;;2.60;99.90;;;;;;4969318;28;20320;-76
2020/12/05 08:25:19;;;;;;;20.17;15.82;;;2.40;99.90;;;;;;4968834;28;20097;-77
2020/12/05 08:27:45;;;;;;;23.90;15.18;;;2.50;99.90;;;;;;4969312;28;20065;-75
2020/12/05 08:30:11;;;;;;;27.25;15.43;;;2.50;99.90;;;;;;4984017;28;20026;-75
2020/12/05 08:32:37;;;;;;;23.02;13.50;;;2.50;99.90;;;;;;4969183;28;20035;-76
2020/12/05 08:35:04;;;;;;;15.60;8.93;;;2.60;99.90;;;;;;4967588;28;20019;-76
2020/12/05 08:37:32;;;;;;;75.73;28.30;;;2.90;99.90;;;;;;4969172;28;20034;-76
2020/12/05 08:39:58;;;;;;;45.65;16.13;;;3.00;99.90;;;;;;4969013;28;20027;-76
2020/12/05 08:42:25;;;;;;;17.50;7.15;;;3.10;99.90;;;;;;4968821;28;20493;-76
2020/12/05 08:44:52;;;;;;;21.70;7.27;;;3.10;99.90;;;;;;4969021;28;20118;-75
2020/12/05 08:47:18;;;;;;;24.92;8.10;;;3.30;99.90;;;;;;4968989;28;20132;-75
2020/12/05 08:49:45;;;;;;;19.52;8.00;;;3.40;99.90;;;;;;4967698;28;20062;-76
2020/12/05 08:52:11;;;;;;;;;;;3.40;99.90;;;;;;4969441;28;20093;-75
2020/12/05 08:54:48;;;;;;;19.75;9.05;;;3.40;99.90;;;;;;4968671;28;20215;-75
2020/12/05 08:57:14;;;;;;;16.80;8.63;;;3.20;99.90;;;;;;4969119;28;20037;-75
2020/12/05 08:59:44;;;;;;;19.42;6.88;;;3.30;99.90;;;;;;4968816;28;20273;-75
2020/12/05 09:02:10;;;;;;;12.90;7.00;;;3.40;99.90;;;;;;4968777;28;20030;-75
2020/12/05 09:04:37;;;;;;;14.10;8.50;;;3.50;99.90;;;;;;4967287;28;20513;-76
2020/12/05 09:07:12;;;;;;;17.48;10.55;;;3.40;99.90;;;;;;4968644;28;20055;-75
2020/12/05 09:09:39;;;;;;;13.68;8.18;;;3.50;99.90;;;;;;4968826;28;20030;-75
2020/12/05 09:12:10;;;;;;;13.48;8.20;;;3.60;99.90;;;;;;4968895;28;20488;-75
2020/12/05 09:14:36;;;;;;;16.50;9.90;;;3.60;99.90;;;;;;4968516;28;20049;-75
2020/12/05 09:17:03;;;;;;;19.83;9.93;;;3.50;99.90;;;;;;4968917;28;20062;-75
2020/12/05 09:19:30;;;;;;;26.23;13.43;;;3.40;99.90;;;;;;4968621;28;20031;-76
2020/12/05 09:21:57;;;;;;;20.50;10.27;;;3.20;99.90;;;;;;4968813;28;20023;-75
2020/12/05 09:24:23;;;;;;;35.42;13.60;;;3.20;99.90;;;;;;4971179;28;20061;-75
2020/12/05 09:26:59;;;;;;;34.30;15.23;;;2.90;99.90;;;;;;4972319;28;20056;-75
2020/12/05 09:29:25;;;;;;;35.97;14.07;;;2.90;99.90;;;;;;4971404;28;20062;-75
2020/12/05 09:31:52;;;;;;;39.83;16.55;;;3.00;99.90;;;;;;4972431;28;20050;-75
2020/12/05 09:34:37;;;;;;;47.40;20.10;;;2.80;99.90;;;;;;4972065;28;20026;-76
2020/12/05 09:37:13;;;;;;;44.58;20.73;;;2.90;99.90;;;;;;4969221;28;20085;-76
2020/12/05 09:39:40;;;;;;;71.65;41.45;;;3.10;99.90;;;;;;4971946;28;20023;-75
2020/12/05 09:42:06;;;;;;;41.50;23.70;;;3.20;99.90;;;;;;4970534;28;20455;-76
2020/12/05 09:44:33;;;;;;;42.00;25.67;;;3.20;99.90;;;;;;4972066;28;20053;-75
2020/12/05 09:47:01;;;;;;;53.85;32.67;;;3.10;99.90;;;;;;4972394;28;20493;-74
2020/12/05 09:49:26;;;;;;;38.70;23.52;;;3.30;99.90;;;;;;4972289;28;20532;-75
2020/12/05 09:51:52;;;;;;;30.02;16.30;;;3.50;99.90;;;;;;4972424;28;20046;-77
2020/12/05 09:54:18;;;;;;;23.70;16.17;;;3.70;99.90;;;;;;4972039;28;20059;-76
2020/12/05 09:56:43;;;;;;;17.70;12.40;;;3.70;99.90;;;;;;4971796;28;20079;-75
2020/12/05 09:59:09;;;;;;;33.75;21.08;;;3.40;99.90;;;;;;4986629;28;20050;-76
2020/12/05 10:01:34;;;;;;;32.40;20.30;;;3.20;99.90;;;;;;4971773;28;20042;-76
2020/12/05 10:04:00;;;;;;;21.38;13.07;;;3.10;99.90;;;;;;4970216;28;20430;-76
2020/12/05 10:06:27;;;;;;;13.07;7.80;;;3.30;99.90;;;;;;4971378;28;20125;-75
2020/12/05 10:08:53;;;;;;;15.15;7.88;;;3.70;99.90;;;;;;4969070;28;20023;-76
2020/12/05 10:11:18;;;;;;;18.33;9.43;;;3.90;99.90;;;;;;4971661;28;20131;-75
2020/12/05 10:13:44;;;;;;;17.77;9.18;;;3.80;99.90;;;;;;4971791;28;20034;-77
2020/12/05 10:16:09;;;;;;;17.13;10.23;;;3.80;99.90;;;;;;4966706;28;20575;-75
2020/12/05 10:18:35;;;;;;;14.95;10.15;;;3.80;99.90;;;;;;4952105;28;20045;-76
2020/12/05 10:21:01;;;;;;;14.85;9.23;;;3.90;99.90;;;;;;4952148;28;20501;-75
2020/12/05 10:23:26;;;;;;;14.88;8.52;;;4.10;99.90;;;;;;4952057;28;20040;-76
2020/12/05 10:25:52;;;;;;;14.07;9.23;;;4.20;99.90;;;;;;4952002;28;20031;-75
2020/12/05 10:28:18;;;;;;;13.57;8.82;;;4.10;99.90;;;;;;4950583;29;20027;-75
2020/12/05 10:30:43;;;;;;;13.75;8.30;;;4.20;99.90;;;;;;4952053;28;20038;-76
2020/12/05 10:33:09;;;;;;;22.35;9.13;;;4.40;99.90;;;;;;4952113;28;20031;-75
2020/12/05 10:35:35;;;;;;;22.73;10.00;;;4.50;99.90;;;;;;4951684;28;20027;-76
2020/12/05 10:38:00;;;;;;;19.27;8.98;;;4.50;99.90;;;;;;4950627;29;20031;-75
2020/12/05 10:40:26;;;;;;;17.40;7.72;;;4.50;99.90;;;;;;4951756;28;20113;-75
2020/12/05 10:42:51;;;;;;;17.73;8.52;;;4.50;99.90;;;;;;4951706;28;20028;-76
2020/12/05 10:45:17;;;;;;;19.90;8.52;;;4.40;99.90;;;;;;4951765;29;20666;-76
2020/12/05 10:47:43;;;;;;;17.15;8.32;;;4.50;99.90;;;;;;4951688;28;20078;-75
2020/12/05 10:50:08;;;;;;;17.02;8.38;;;4.50;99.90;;;;;;4951743;28;20495;-75
2020/12/05 10:52:34;;;;;;;13.50;7.75;;;4.40;99.90;;;;;;4966523;28;20487;-76
2020/12/05 10:55:00;;;;;;;20.90;10.25;;;4.30;99.90;;;;;;4950935;28;20031;-75
2020/12/05 10:57:25;;;;;;;26.85;14.30;;;4.10;99.90;;;;;;4970005;28;20023;-76
2020/12/05 10:59:53;;;;;;;28.08;15.43;;;4.20;99.90;;;;;;4971162;28;20035;-75
2020/12/05 11:02:19;;;;;;;24.58;12.75;;;4.30;99.90;;;;;;4971381;28;20098;-76
2020/12/05 11:04:44;;;;;;;31.23;14.00;;;4.40;99.90;;;;;;4970774;28;20118;-75
2020/12/05 11:07:10;;;;;;;27.98;15.35;;;4.50;99.90;;;;;;4970944;28;20027;-76
2020/12/05 11:09:36;;;;;;;25.40;13.60;;;4.30;99.90;;;;;;4971474;28;20121;-79
2020/12/05 11:12:02;;;;;;;29.60;15.05;;;4.30;99.90;;;;;;4973186;28;20030;-76
2020/12/05 11:14:28;;;;;;;23.70;13.07;;;4.30;99.90;;;;;;4973906;28;20023;-77
2020/12/05 11:16:53;;;;;;;26.52;16.23;;;4.30;99.90;;;;;;4973887;28;20468;-77
2020/12/05 11:19:19;;;;;;;32.80;19.88;;;4.20;99.90;;;;;;4973026;28;20030;-77
2020/12/05 11:21:45;;;;;;;24.45;14.20;;;4.20;99.90;;;;;;4986364;28;20027;-77
2020/12/05 11:24:11;;;;;;;22.63;10.90;;;4.40;99.90;;;;;;4971046;28;20449;-77
2020/12/05 11:26:37;;;;;;;25.02;13.82;;;4.50;99.90;;;;;;4970475;28;20023;-77
2020/12/05 11:29:04;;;;;;;20.38;12.65;;;4.30;99.90;;;;;;4971252;28;20031;-76
2020/12/05 11:31:30;;;;;;;;;;;3.80;99.90;;;;;;4969878;28;20113;-78
2020/12/05 11:33:56;;;;;;;24.45;10.80;;;3.00;99.90;;;;;;4970465;28;20588;-79
2020/12/05 11:36:21;;;;;;;22.67;11.85;;;2.90;99.90;;;;;;4970383;28;20031;-77
2020/12/05 11:38:47;;;;;;;22.30;12.23;;;2.80;99.90;;;;;;4970479;28;20056;-76
2020/12/05 11:41:13;;;;;;;23.67;12.27;;;2.80;99.90;;;;;;4985411;28;20031;-76
2020/12/05 11:43:38;;;;;;;19.38;12.25;;;2.90;99.90;;;;;;4970388;28;20576;-77
2020/12/05 11:46:04;;;;;;;20.88;12.02;;;3.10;99.90;;;;;;4969959;28;20065;-76
2020/12/05 11:48:30;;;;;;;19.67;11.38;;;3.60;99.90;;;;;;4985618;28;20027;-77
2020/12/05 11:50:55;;;;;;;26.05;14.30;;;3.80;99.90;;;;;;4970495;28;20023;-75
2020/12/05 11:53:21;;;;;;;20.52;14.52;;;3.70;99.90;;;;;;4970264;28;20122;-77
2020/12/05 11:55:48;;;;;;;25.98;17.05;;;3.50;99.90;;;;;;4970174;28;20063;-77
2020/12/05 11:58:14;;;;;;;24.75;14.80;;;3.70;99.90;;;;;;4970375;28;20022;-77
2020/12/05 12:00:39;;;;;;;24.85;12.57;;;4.10;99.90;;;;;;4970851;28;20049;-75
2020/12/05 12:03:05;;;;;;;26.80;14.38;;;4.30;99.90;;;;;;4985327;28;20041;-77
2020/12/05 12:05:31;;;;;;;24.10;13.10;;;3.80;99.90;;;;;;4970810;28;20039;-77
2020/12/05 12:07:56;;;;;;;31.67;14.65;;;3.90;99.90;;;;;;4985849;28;20033;-78
2020/12/05 12:10:22;;;;;;;40.00;14.65;;;4.10;99.90;;;;;;4970175;28;20019;-77
2020/12/05 12:12:48;;;;;;;22.55;13.02;;;4.10;99.90;;;;;;4971482;28;20113;-78
2020/12/05 12:15:15;;;;;;;26.38;13.35;;;3.80;99.90;;;;;;4986385;28;20114;-76
2020/12/05 12:17:41;;;;;;;23.90;15.60;;;3.80;99.90;;;;;;4971688;28;20046;-75
2020/12/05 12:20:07;;;;;;;27.77;17.45;;;3.70;99.90;;;;;;4971230;28;20266;-76
2020/12/05 12:22:33;;;;;;;22.00;14.40;;;3.20;99.90;;;;;;4969298;28;20082;-76
2020/12/05 12:24:58;;;;;;;22.02;15.40;;;3.20;99.90;;;;;;4968777;28;20506;-75
2020/12/05 12:27:24;;;;;;;28.65;20.15;;;3.40;99.90;;;;;;4967372;28;20425;-75
2020/12/05 12:29:50;;;;;;;17.52;12.15;;;3.30;99.90;;;;;;4967481;28;20085;-75
2020/12/05 12:32:15;;;;;;;20.85;14.45;;;3.00;99.90;;;;;;4969235;28;20097;-76
2020/12/05 12:34:42;;;;;;;31.30;19.70;;;3.30;99.90;;;;;;4968794;28;20553;-76
2020/12/05 12:37:07;;;;;;;22.58;14.93;;;3.10;99.90;;;;;;4969301;28;20536;-75
2020/12/05 12:39:33;;;;;;;27.38;17.92;;;2.90;99.90;;;;;;4968170;28;20031;-76
2020/12/05 12:41:58;;;;;;;29.88;20.02;;;3.00;99.90;;;;;;4984041;28;20023;-76
2020/12/05 12:44:24;;;;;;;27.95;18.60;;;3.30;99.90;;;;;;4968888;28;20089;-75
2020/12/05 12:49:36;;;;;;;27.40;17.08;;;3.60;99.90;;;;;;4969092;28;20110;-76
2020/12/05 12:52:06;;;;;;;30.83;19.55;;;3.90;99.90;;;;;;4968848;28;20526;-76